createdAt,value
2022-12-03T00:03:03.875Z,19.20
2022-12-03T00:08:07.167Z,19.10
2022-12-03T00:13:10.186Z,20.30
2022-12-03T00:18:13.208Z,18.50
2022-12-03T00:23:16.254Z,21.00
2022-12-03T00:28:19.308Z,20.40
2022-12-03T00:33:23.174Z,20.40
2022-12-03T00:38:29.089Z,18.90
2022-12-03T00:43:33.183Z,19.20
2022-12-03T00:48:36.202Z,19.50
2022-12-03T00:53:39.203Z,18.20
2022-12-03T00:58:42.192Z,19.10
2022-12-03T01:03:45.213Z,17.20
2022-12-03T01:08:48.216Z,20.70
2022-12-03T01:13:51.211Z,21.50
2022-12-03T01:18:54.233Z,21.60
2022-12-03T01:23:57.987Z,20.40
2022-12-03T01:29:00.999Z,19.40
2022-12-03T01:34:04.337Z,21.40
2022-12-03T01:39:07.779Z,19.80
2022-12-03T01:44:23.416Z,19.80
2022-12-03T01:49:39.930Z,20.80
2022-12-03T01:54:48.380Z,21.80
2022-12-03T01:59:53.537Z,21.90
2022-12-03T02:04:57.058Z,21.20
2022-12-03T02:10:03.214Z,18.30
2022-12-03T02:15:08.200Z,20.30
2022-12-03T02:20:13.053Z,19.90
2022-12-03T02:25:29.437Z,21.00
2022-12-03T02:30:32.874Z,20.60
2022-12-03T02:35:38.653Z,21.50
2022-12-03T02:40:43.159Z,21.20
2022-12-03T02:45:54.046Z,20.40
2022-12-03T02:51:11.307Z,20.50
2022-12-03T02:56:21.249Z,20.10
2022-12-03T03:01:27.336Z,20.80
2022-12-03T03:06:31.008Z,19.40
2022-12-03T03:11:34.095Z,22.20
2022-12-03T03:16:37.846Z,20.90
2022-12-03T03:21:43.978Z,20.20
2022-12-03T03:26:47.871Z,20.80
2022-12-03T03:36:54.286Z,18.50
2022-12-03T03:41:57.426Z,18.50
2022-12-03T03:47:01.250Z,21.20
2022-12-03T03:52:04.845Z,23.50
2022-12-03T03:57:07.966Z,20.90
2022-12-03T04:02:22.897Z,20.40
2022-12-03T04:07:26.033Z,16.60
2022-12-03T04:12:47.834Z,20.90
2022-12-03T04:18:11.254Z,22.10
2022-12-03T04:23:14.273Z,21.40
2022-12-03T04:28:36.178Z,19.90
2022-12-03T04:33:57.731Z,22.60
2022-12-03T04:39:01.061Z,16.60
2022-12-03T04:44:22.994Z,19.00
2022-12-03T04:49:26.618Z,20.30
2022-12-03T04:54:30.029Z,21.50
2022-12-03T04:59:34.057Z,20.60
2022-12-03T05:04:37.384Z,22.00
2022-12-03T05:09:40.495Z,19.50
2022-12-03T05:14:43.491Z,18.60
2022-12-03T05:20:05.358Z,17.50
2022-12-03T05:25:09.463Z,21.30
2022-12-03T05:30:12.972Z,20.60
2022-12-03T05:35:16.118Z,23.20
2022-12-03T05:40:20.111Z,16.70
2022-12-03T05:50:43.942Z,15.40
2022-12-03T05:55:47.095Z,20.20
2022-12-03T06:00:50.144Z,18.00
2022-12-03T06:05:53.218Z,20.70
2022-12-03T06:10:56.244Z,22.80
2022-12-03T06:15:59.361Z,28.40
2022-12-03T06:21:03.435Z,33.00
2022-12-03T06:31:09.767Z,27.70
2022-12-03T06:36:12.855Z,21.00
2022-12-03T06:41:15.863Z,25.80
2022-12-03T06:46:18.989Z,44.10
2022-12-03T06:51:22.103Z,24.70
2022-12-03T06:56:26.483Z,24.40
2022-12-03T07:01:31.522Z,25.10
2022-12-03T07:06:34.549Z,22.40
2022-12-03T07:11:40.631Z,22.70
2022-12-03T07:16:44.158Z,23.70
2022-12-03T07:21:47.205Z,31.50
2022-12-03T07:26:50.215Z,32.50
2022-12-03T07:31:53.380Z,32.30
2022-12-03T07:36:56.455Z,26.30
2022-12-03T07:42:00.047Z,25.40
2022-12-03T07:47:03.221Z,35.80
2022-12-03T07:52:07.433Z,44.40
2022-12-03T07:57:10.505Z,23.80
2022-12-03T08:02:18.206Z,41.70
2022-12-03T08:07:24.730Z,40.50
2022-12-03T08:12:42.867Z,26.60
2022-12-03T08:17:51.682Z,28.20
2022-12-03T08:22:56.364Z,31.20
2022-12-03T08:28:11.490Z,23.40
2022-12-03T08:33:36.927Z,28.90
2022-12-03T08:38:40.366Z,25.40
2022-12-03T08:43:44.028Z,27.00
2022-12-03T08:48:49.388Z,28.80
2022-12-03T08:54:02.157Z,31.60
2022-12-03T08:59:30.766Z,26.40
2022-12-03T09:04:46.878Z,24.90
2022-12-03T09:09:49.953Z,25.70
2022-12-03T09:14:53.191Z,35.20
2022-12-03T09:19:56.396Z,19.50
2022-12-03T09:24:59.575Z,23.60
2022-12-03T09:30:03.549Z,27.10
2022-12-03T09:40:11.809Z,44.00
2022-12-03T09:45:16.085Z,29.40
2022-12-03T09:50:26.459Z,78.80
2022-12-03T09:55:30.129Z,40.40
2022-12-03T10:00:33.120Z,51.60
2022-12-03T10:05:36.253Z,103.00
2022-12-03T10:10:42.080Z,58.90
2022-12-03T10:15:45.183Z,70.00
2022-12-03T10:20:49.076Z,106.80
2022-12-03T10:26:04.220Z,53.60
2022-12-03T10:31:11.345Z,49.70
2022-12-03T10:36:20.749Z,38.10
2022-12-03T10:41:28.531Z,36.90
2022-12-03T10:46:31.567Z,37.20
2022-12-03T10:51:35.347Z,36.60
2022-12-03T11:01:41.650Z,36.80
2022-12-03T11:06:48.338Z,36.00
2022-12-03T11:11:51.499Z,46.80
2022-12-03T11:17:07.577Z,40.40
2022-12-03T11:22:10.599Z,36.50
2022-12-03T11:27:20.873Z,32.10
2022-12-03T11:32:39.788Z,34.10
2022-12-03T11:37:42.867Z,38.80
2022-12-03T11:42:48.977Z,37.50
2022-12-03T11:47:58.192Z,33.00
2022-12-03T11:53:08.075Z,34.00
2022-12-03T11:58:32.181Z,47.60
2022-12-03T12:03:49.006Z,39.60
2022-12-03T12:08:52.068Z,41.20
2022-12-03T12:14:07.018Z,38.40
2022-12-03T12:19:43.664Z,44.00
2022-12-03T12:24:51.815Z,40.00
2022-12-03T12:30:01.534Z,52.00
2022-12-03T12:35:17.829Z,48.10
2022-12-03T12:40:26.925Z,45.50
2022-12-03T12:45:35.178Z,40.30
2022-12-03T12:50:39.510Z,32.80
2022-12-03T12:55:42.585Z,40.20
2022-12-03T13:00:57.237Z,44.90
2022-12-03T13:06:02.756Z,46.60
2022-12-03T13:11:12.138Z,43.30
2022-12-03T13:16:34.014Z,45.80
2022-12-03T13:21:44.776Z,41.40
2022-12-03T13:26:47.834Z,45.50
2022-12-03T13:32:10.092Z,47.70
2022-12-03T13:37:34.000Z,45.80
2022-12-03T13:42:42.280Z,44.50
2022-12-03T13:47:54.062Z,49.90
2022-12-03T13:52:57.462Z,45.20
2022-12-03T13:58:00.443Z,45.60
2022-12-03T14:03:03.607Z,46.10
2022-12-03T14:08:06.710Z,50.90
2022-12-03T14:13:09.748Z,46.40
2022-12-03T14:18:12.718Z,62.50
2022-12-03T14:23:16.065Z,62.50
2022-12-03T14:28:19.043Z,62.40
2022-12-03T14:33:22.021Z,55.60
2022-12-03T14:38:25.089Z,51.90
2022-12-03T14:43:28.096Z,44.70
2022-12-03T14:48:31.083Z,58.90
2022-12-03T14:53:34.059Z,106.50
2022-12-03T14:58:37.045Z,65.50
2022-12-03T15:03:40.028Z,106.70
2022-12-03T15:08:43.052Z,49.30
2022-12-03T15:13:46.086Z,62.70
2022-12-03T15:18:49.211Z,68.80
2022-12-03T15:23:52.219Z,93.40
2022-12-03T15:28:55.285Z,72.70
2022-12-03T15:33:58.681Z,72.90
2022-12-03T15:39:01.731Z,120.00
2022-12-03T15:44:05.681Z,79.80
2022-12-03T15:54:12.481Z,52.70
2022-12-03T16:04:18.321Z,75.40
2022-12-03T16:09:26.943Z,101.50
2022-12-03T16:14:30.640Z,45.80
2022-12-03T16:19:33.653Z,62.40
2022-12-03T16:24:36.694Z,86.20
2022-12-03T16:29:39.706Z,90.40
2022-12-03T16:34:42.729Z,86.20
2022-12-03T16:39:45.830Z,80.60
2022-12-03T16:45:23.010Z,79.70
2022-12-03T16:50:29.872Z,64.00
2022-12-03T16:55:33.725Z,68.30
2022-12-03T17:00:37.190Z,74.20
2022-12-03T17:05:40.691Z,67.00
2022-12-03T17:10:44.883Z,61.30
2022-12-03T17:15:47.979Z,74.30
2022-12-03T17:20:50.977Z,48.50
2022-12-03T17:25:54.003Z,73.60
2022-12-03T17:30:57.056Z,58.60
2022-12-03T17:36:00.106Z,127.50
2022-12-03T17:41:03.129Z,102.10
2022-12-03T17:46:07.564Z,69.30
2022-12-03T17:51:10.600Z,80.20
2022-12-03T17:56:13.638Z,70.20
2022-12-03T18:01:16.745Z,61.00
2022-12-03T18:06:19.854Z,54.70
2022-12-03T18:11:23.596Z,45.40
2022-12-03T18:16:26.980Z,52.20
2022-12-03T18:21:30.029Z,50.70
2022-12-03T18:26:33.080Z,52.40
2022-12-03T18:31:36.123Z,105.20
2022-12-03T18:36:39.144Z,78.20
2022-12-03T18:41:42.185Z,48.80
2022-12-03T18:46:53.663Z,264.30
2022-12-03T18:51:59.620Z,228.60
2022-12-03T18:57:05.905Z,78.70
2022-12-03T19:02:38.637Z,54.70
2022-12-03T19:07:40.095Z,114.90
2022-12-03T19:12:43.266Z,66.70
2022-12-03T19:17:50.744Z,105.40
2022-12-03T19:22:53.775Z,134.60
2022-12-03T19:27:57.476Z,86.50
2022-12-03T19:33:00.506Z,64.30
2022-12-03T19:38:03.488Z,73.10
2022-12-03T19:43:06.490Z,68.60
2022-12-03T19:48:09.858Z,65.50
2022-12-03T19:53:12.811Z,59.30
2022-12-03T19:58:15.781Z,112.90
2022-12-03T20:03:18.777Z,67.20
2022-12-03T20:08:21.857Z,51.70
2022-12-03T20:13:25.007Z,44.50
2022-12-03T20:18:28.019Z,42.60
2022-12-03T20:23:30.998Z,39.30
2022-12-03T20:28:34.006Z,55.10
2022-12-03T20:33:38.279Z,50.30
2022-12-03T20:38:41.338Z,33.20
2022-12-03T20:43:45.809Z,44.00
2022-12-03T20:48:50.432Z,34.90
2022-12-03T20:53:54.065Z,33.20
2022-12-03T20:59:00.654Z,34.20
2022-12-03T21:04:05.213Z,29.80
2022-12-03T21:09:10.159Z,38.20
2022-12-03T21:14:13.164Z,32.50
2022-12-03T21:19:20.829Z,36.00
2022-12-03T21:24:23.983Z,29.50
2022-12-03T21:29:27.075Z,27.60
2022-12-03T21:34:36.111Z,40.00
2022-12-03T21:39:39.687Z,41.50
2022-12-03T21:44:42.695Z,39.90
2022-12-03T21:49:45.679Z,47.00
2022-12-03T21:54:51.823Z,43.40
2022-12-03T21:59:56.075Z,81.70
2022-12-03T22:04:59.233Z,107.10
2022-12-03T22:10:03.510Z,30.50
2022-12-03T22:15:07.474Z,105.80
2022-12-03T22:25:13.888Z,117.10
2022-12-03T22:30:17.009Z,44.50
2022-12-03T22:35:21.444Z,57.70
2022-12-03T22:40:24.476Z,188.50
2022-12-03T22:45:27.495Z,152.70
2022-12-03T22:50:30.493Z,57.10
2022-12-03T22:55:33.475Z,55.10
2022-12-03T23:00:40.332Z,34.90
2022-12-03T23:05:43.482Z,47.70
2022-12-03T23:10:50.484Z,42.90
2022-12-03T23:15:53.556Z,37.20
2022-12-03T23:20:57.623Z,86.00
2022-12-03T23:26:09.933Z,47.10
2022-12-03T23:31:33.469Z,42.50
2022-12-03T23:36:36.739Z,38.80
2022-12-03T23:41:39.743Z,34.40
2022-12-03T23:46:42.855Z,34.00
2022-12-03T23:51:46.908Z,46.10
